Onego, West Virginia
Current Conditions -  °F | °C
As of 10:25 AM on Wednesday 26 Nov 2014 (Local Time) from KEKN Reporting Station
Moderate Snow Moderate Snow  
Wind Chill: 32°   Ceiling: 500
Heat Index: 32°   Visibility: 0.25mi
Dew Point: 32°   Wind: 0mph
Humidity: 100%   Direction: NA
Pressure: 30.04"   Gusts: NA
Location:  38.85°N, 79.42°W
Report Text: KEKN 261525Z AUTO 00000KT 1/4SM SN FG VV005 00/00 A3004 RMK AO2 P0006 T00000000 TSNO
Loading
Personal Weather Stations






























Interactive Weather Map New forecast layout! Learn more

10-Day Weather Forecast

Advertisements
Track Severe Weather on mobile